createdAt,value
2023-04-15T00:01:04.763Z,99639.84
2023-04-15T00:03:35.002Z,99635.17
2023-04-15T00:06:05.098Z,99636.42
2023-04-15T00:08:33.797Z,99631.07
2023-04-15T00:11:05.833Z,99629.34
2023-04-15T00:13:40.426Z,99628.86
2023-04-15T00:16:08.788Z,99626.08
2023-04-15T00:18:37.502Z,99621.66
2023-04-15T00:21:05.589Z,99618.86
2023-04-15T00:23:33.587Z,99619.30
2023-04-15T00:26:01.767Z,99625.47
2023-04-15T00:28:32.540Z,99629.74
2023-04-15T00:31:01.113Z,99630.29
2023-04-15T00:33:29.251Z,99628.84
2023-04-15T00:35:59.296Z,99638.09
2023-04-15T00:38:28.252Z,99629.33
2023-04-15T00:40:56.623Z,99632.98
2023-04-15T00:43:26.548Z,99628.80
2023-04-15T00:45:54.975Z,99623.59
2023-04-15T00:48:23.137Z,99619.79
2023-04-15T00:50:51.199Z,99617.95
2023-04-15T00:53:19.077Z,99616.02
2023-04-15T00:55:48.213Z,99621.51
2023-04-15T00:58:16.819Z,99623.84
2023-04-15T01:00:44.845Z,99629.59
2023-04-15T01:03:15.772Z,99629.38
2023-04-15T01:05:44.899Z,99627.77
2023-04-15T01:08:13.286Z,99625.65
2023-04-15T01:10:41.563Z,99621.67
2023-04-15T01:13:10.561Z,99623.77
2023-04-15T01:15:39.181Z,99618.50
2023-04-15T01:18:07.640Z,99622.48
2023-04-15T01:20:37.145Z,99625.27
2023-04-15T01:23:06.276Z,99628.89
2023-04-15T01:25:34.368Z,99625.23
2023-04-15T01:28:03.311Z,99627.06
2023-04-15T01:30:36.085Z,99624.65
2023-04-15T01:33:06.912Z,99631.48
2023-04-15T01:35:36.525Z,99636.59
2023-04-15T01:38:08.556Z,99643.75
2023-04-15T01:40:36.442Z,99643.36
2023-04-15T01:43:04.694Z,99644.14
2023-04-15T01:45:33.661Z,99652.27
2023-04-15T01:48:04.857Z,99651.78
2023-04-15T01:50:36.968Z,99655.44
2023-04-15T01:53:05.186Z,99656.67
2023-04-15T01:55:33.150Z,99656.20
2023-04-15T01:58:01.496Z,99658.83
2023-04-15T02:00:30.845Z,99656.35
2023-04-15T02:02:59.548Z,99659.86
2023-04-15T02:05:27.883Z,99658.14
2023-04-15T02:07:55.847Z,99658.41
2023-04-15T02:10:23.994Z,99663.89
2023-04-15T02:12:54.487Z,99668.79
2023-04-15T02:15:23.253Z,99676.23
2023-04-15T02:17:52.779Z,99673.33
2023-04-15T02:20:21.526Z,99678.27
2023-04-15T02:22:49.514Z,99679.83
2023-04-15T02:25:19.178Z,99680.20
2023-04-15T02:27:48.078Z,99683.44
2023-04-15T02:30:18.169Z,99684.83
2023-04-15T02:32:47.298Z,99684.14
2023-04-15T02:35:19.290Z,99675.64
2023-04-15T02:37:47.515Z,99680.48
2023-04-15T02:40:15.746Z,99684.35
2023-04-15T02:42:44.636Z,99684.02
2023-04-15T02:45:14.851Z,99689.19
2023-04-15T02:47:46.214Z,99694.84
2023-04-15T02:50:15.255Z,99700.05
2023-04-15T02:52:43.538Z,99700.80
2023-04-15T02:55:12.717Z,99704.45
2023-04-15T02:57:42.231Z,99704.95
2023-04-15T03:00:12.269Z,99705.58
2023-04-15T03:02:44.157Z,99705.59
2023-04-15T03:05:13.275Z,99707.69
2023-04-15T03:07:48.156Z,99704.45
2023-04-15T03:10:16.580Z,99701.76
2023-04-15T03:12:45.234Z,99702.73
2023-04-15T03:15:17.337Z,99704.16
2023-04-15T03:17:49.826Z,99703.52
2023-04-15T03:20:18.819Z,99698.52
2023-04-15T03:22:48.591Z,99706.55
2023-04-15T03:25:17.270Z,99707.30
2023-04-15T03:27:45.288Z,99705.90
2023-04-15T03:30:15.397Z,99702.66
2023-04-15T03:32:44.659Z,99701.52
2023-04-15T03:35:13.130Z,99703.90
2023-04-15T03:37:41.400Z,99706.23
2023-04-15T03:40:10.311Z,99703.91
2023-04-15T03:42:38.421Z,99702.03
2023-04-15T03:45:08.761Z,99700.80
2023-04-15T03:47:37.855Z,99703.91
2023-04-15T03:50:06.018Z,99709.19
2023-04-15T03:52:36.032Z,99706.50
2023-04-15T03:55:04.041Z,99707.14
2023-04-15T03:57:38.091Z,99710.91
2023-04-15T04:00:07.423Z,99706.02
2023-04-15T04:02:40.527Z,99701.50
2023-04-15T04:05:09.002Z,99701.07
2023-04-15T04:07:37.091Z,99702.30
2023-04-15T04:10:05.367Z,99702.52
2023-04-15T04:12:34.536Z,99705.27
2023-04-15T04:15:02.623Z,99708.33
2023-04-15T04:17:30.945Z,99714.41
2023-04-15T04:19:59.129Z,99717.59
2023-04-15T04:22:29.208Z,99716.83
2023-04-15T04:24:59.475Z,99718.93
2023-04-15T04:27:28.017Z,99715.23
2023-04-15T04:29:55.933Z,99711.83
2023-04-15T04:32:24.648Z,99717.75
2023-04-15T04:34:52.586Z,99725.06
2023-04-15T04:37:21.833Z,99725.17
2023-04-15T04:39:51.196Z,99727.77
2023-04-15T04:42:19.404Z,99723.68
2023-04-15T04:44:47.279Z,99726.79
2023-04-15T04:47:15.715Z,99728.67
2023-04-15T04:49:43.691Z,99725.88
2023-04-15T04:52:13.969Z,99720.49
2023-04-15T04:54:42.235Z,99723.55
2023-04-15T04:57:10.637Z,99724.77
2023-04-15T04:59:41.304Z,99726.88
2023-04-15T05:02:11.075Z,99723.91
2023-04-15T05:04:39.043Z,99721.70
2023-04-15T05:07:07.267Z,99718.55
2023-04-15T05:09:36.927Z,99718.55
2023-04-15T05:12:05.087Z,99719.89
2023-04-15T05:14:33.417Z,99726.27
2023-04-15T05:17:03.575Z,99725.48
2023-04-15T05:19:32.588Z,99729.02
2023-04-15T05:22:01.193Z,99725.48
2023-04-15T05:24:29.397Z,99729.43
2023-04-15T05:26:59.640Z,99733.55
2023-04-15T05:29:31.706Z,99734.16
2023-04-15T05:31:59.666Z,99743.20
2023-04-15T05:34:27.607Z,99747.40
2023-04-15T05:36:55.656Z,99746.48
2023-04-15T05:39:23.657Z,99746.70
2023-04-15T05:41:51.623Z,99744.79
2023-04-15T05:44:21.239Z,99747.38
2023-04-15T05:46:49.449Z,99745.59
2023-04-15T05:49:17.580Z,99743.72
2023-04-15T05:51:47.397Z,99751.95
2023-04-15T05:54:17.763Z,99754.37
2023-04-15T05:56:47.636Z,99751.20
2023-04-15T05:59:15.840Z,99748.90
2023-04-15T06:01:48.162Z,99748.73
2023-04-15T06:04:17.323Z,99752.56
2023-04-15T06:06:45.712Z,99750.41
2023-04-15T06:09:13.690Z,99754.23
2023-04-15T06:11:45.466Z,99748.31
2023-04-15T06:14:14.277Z,99754.23
2023-04-15T06:16:42.602Z,99755.86
2023-04-15T06:19:11.165Z,99753.05
2023-04-15T06:21:40.148Z,99756.45
2023-04-15T06:24:08.127Z,99756.35
2023-04-15T06:26:38.445Z,99755.55
2023-04-15T06:29:06.827Z,99759.21
2023-04-15T06:31:37.983Z,99760.02
2023-04-15T06:34:07.533Z,99761.21
2023-04-15T06:36:35.748Z,99760.57
2023-04-15T06:39:03.987Z,99766.00
2023-04-15T06:41:32.442Z,99766.81
2023-04-15T06:44:00.310Z,99766.34
2023-04-15T06:46:29.453Z,99772.48
2023-04-15T06:48:57.454Z,99777.16
2023-04-15T06:51:26.768Z,99773.55
2023-04-15T06:53:55.933Z,99771.88
2023-04-15T06:56:23.904Z,99772.15
2023-04-15T06:58:52.093Z,99773.06
2023-04-15T07:01:20.169Z,99774.42
2023-04-15T07:03:49.627Z,99774.73
2023-04-15T07:06:18.184Z,99772.80
2023-04-15T07:08:46.465Z,99773.51
2023-04-15T07:11:14.666Z,99781.85
2023-04-15T07:13:42.618Z,99779.85
2023-04-15T07:16:12.124Z,99780.71
2023-04-15T07:18:40.211Z,99783.98
2023-04-15T07:21:08.586Z,99781.02
2023-04-15T07:23:36.524Z,99782.91
2023-04-15T07:26:05.724Z,99776.23
2023-04-15T07:28:33.691Z,99775.21
2023-04-15T07:31:04.809Z,99775.81
2023-04-15T07:33:39.256Z,99780.92
2023-04-15T07:36:08.264Z,99784.58
2023-04-15T07:38:36.800Z,99780.64
2023-04-15T07:41:09.662Z,99783.43
2023-04-15T07:43:41.505Z,99789.52
2023-04-15T07:46:09.608Z,99795.81
2023-04-15T07:48:38.111Z,99801.08
2023-04-15T07:51:06.397Z,99797.54
2023-04-15T07:53:34.944Z,99802.56
2023-04-15T07:56:02.944Z,99795.30
2023-04-15T07:58:31.610Z,99796.13
2023-04-15T08:01:02.154Z,99801.13
2023-04-15T08:03:30.482Z,99794.88
2023-04-15T08:05:58.962Z,99793.00
2023-04-15T08:08:27.691Z,99790.90
2023-04-15T08:10:56.672Z,99791.00
2023-04-15T08:13:31.123Z,99788.46
2023-04-15T08:16:38.374Z,99794.36
2023-04-15T08:19:07.692Z,99798.16
2023-04-15T08:21:36.886Z,99796.70
2023-04-15T08:24:05.220Z,99797.61
2023-04-15T08:26:43.427Z,99794.83
2023-04-15T08:29:12.916Z,99802.80
2023-04-15T08:31:41.200Z,99803.23
2023-04-15T08:34:11.831Z,99800.05
2023-04-15T08:36:42.913Z,99796.55
2023-04-15T08:39:14.457Z,99799.77
2023-04-15T08:41:51.958Z,99794.84
2023-04-15T08:44:21.708Z,99793.00
2023-04-15T08:46:52.224Z,99793.41
2023-04-15T08:49:20.262Z,99789.44
2023-04-15T08:51:50.850Z,99790.08
2023-04-15T08:54:23.554Z,99791.05
2023-04-15T08:56:53.878Z,99785.38
2023-04-15T08:59:22.608Z,99792.55
2023-04-15T09:01:51.472Z,99795.36
2023-04-15T09:04:19.662Z,99800.64
2023-04-15T09:06:48.588Z,99796.12
2023-04-15T09:09:16.874Z,99799.45
2023-04-15T09:11:45.557Z,99798.59
2023-04-15T09:14:13.631Z,99799.18
2023-04-15T09:16:58.907Z,99800.09
2023-04-15T09:19:27.278Z,99797.99
2023-04-15T09:21:58.964Z,99801.77
2023-04-15T09:24:33.940Z,99803.10
2023-04-15T09:27:02.587Z,99804.73
2023-04-15T09:29:31.630Z,99805.16
2023-04-15T09:32:12.608Z,99805.96
2023-04-15T09:34:41.438Z,99806.98
2023-04-15T09:37:11.161Z,99807.04
2023-04-15T09:39:50.205Z,99807.33
2023-04-15T09:42:24.479Z,99805.77
2023-04-15T09:44:55.447Z,99807.64
2023-04-15T09:47:30.115Z,99810.87
2023-04-15T09:50:01.814Z,99808.51
2023-04-15T09:52:30.422Z,99805.97
2023-04-15T09:54:58.913Z,99811.90
2023-04-15T09:57:34.310Z,99817.77
2023-04-15T10:00:09.069Z,99818.13
2023-04-15T10:02:40.114Z,99818.29
2023-04-15T10:05:10.429Z,99818.45
2023-04-15T10:07:43.621Z,99819.91
2023-04-15T10:10:11.625Z,99820.77
2023-04-15T10:12:40.493Z,99817.16
2023-04-15T10:15:09.250Z,99816.14
2023-04-15T10:17:37.681Z,99819.27
2023-04-15T10:20:07.159Z,99820.02
2023-04-15T10:22:35.185Z,99814.21
2023-04-15T10:25:07.318Z,99822.99
2023-04-15T10:27:35.335Z,99823.52
2023-04-15T10:30:03.952Z,99822.72
2023-04-15T10:32:32.398Z,99830.75
2023-04-15T10:35:04.913Z,99830.05
2023-04-15T10:37:37.589Z,99828.48
2023-04-15T10:40:24.310Z,99831.19
2023-04-15T10:42:52.255Z,99827.25
2023-04-15T10:45:20.327Z,99831.61
2023-04-15T10:47:58.496Z,99834.41
2023-04-15T10:50:28.396Z,99831.17
2023-04-15T10:52:56.555Z,99830.15
2023-04-15T10:55:25.292Z,99835.16
2023-04-15T10:57:54.202Z,99836.39
2023-04-15T11:00:24.932Z,99839.25
2023-04-15T11:03:06.717Z,99839.45
2023-04-15T11:05:41.907Z,99835.41
2023-04-15T11:08:10.459Z,99834.17
2023-04-15T11:10:39.021Z,99833.52
2023-04-15T11:13:09.755Z,99834.66
2023-04-15T11:18:33.060Z,99831.88
2023-04-15T11:21:02.403Z,99836.02
2023-04-15T11:23:40.093Z,99838.08
2023-04-15T11:26:12.302Z,99833.23
2023-04-15T11:28:41.552Z,99832.25
2023-04-15T11:31:10.938Z,99828.80
2023-04-15T11:33:44.907Z,99829.08
2023-04-15T11:36:13.900Z,99837.31
2023-04-15T11:38:43.144Z,99834.35
2023-04-15T11:41:11.424Z,99836.98
2023-04-15T11:43:42.446Z,99834.50
2023-04-15T11:46:11.448Z,99831.91
2023-04-15T11:48:42.105Z,99827.50
2023-04-15T11:51:10.132Z,99826.52
2023-04-15T11:53:46.246Z,99823.02
2023-04-15T11:56:21.191Z,99828.90
2023-04-15T11:58:50.995Z,99828.63
2023-04-15T12:01:22.168Z,99823.19
2023-04-15T12:03:50.681Z,99825.50
2023-04-15T12:06:19.806Z,99824.75
2023-04-15T12:08:56.094Z,99820.33
2023-04-15T12:11:31.452Z,99820.28
2023-04-15T12:14:01.136Z,99818.02
2023-04-15T12:16:29.235Z,99816.45
2023-04-15T12:18:57.911Z,99810.11
2023-04-15T12:21:26.646Z,99810.10
2023-04-15T12:23:57.838Z,99807.09
2023-04-15T12:26:27.561Z,99810.05
2023-04-15T12:28:56.560Z,99803.86
2023-04-15T12:31:24.508Z,99801.77
2023-04-15T12:33:52.975Z,99801.37
2023-04-15T12:36:21.011Z,99791.63
2023-04-15T12:38:49.330Z,99784.69
2023-04-15T12:41:17.527Z,99788.08
2023-04-15T12:43:46.822Z,99787.11
2023-04-15T12:46:15.865Z,99786.52
2023-04-15T12:48:44.061Z,99787.81
2023-04-15T12:51:11.942Z,99800.09
2023-04-15T12:53:40.617Z,99799.27
2023-04-15T12:56:08.483Z,99797.88
2023-04-15T12:58:37.318Z,99796.15
2023-04-15T13:01:06.712Z,99792.00
2023-04-15T13:03:34.699Z,99789.42
2023-04-15T13:06:04.861Z,99793.40
2023-04-15T13:08:32.957Z,99787.80
2023-04-15T13:11:01.087Z,99790.35
2023-04-15T13:13:29.416Z,99794.76
2023-04-15T13:16:01.084Z,99794.71
2023-04-15T13:18:31.227Z,99792.23
2023-04-15T13:20:59.512Z,99790.99
2023-04-15T13:23:27.687Z,99785.39
2023-04-15T13:25:56.191Z,99790.56
2023-04-15T13:28:24.153Z,99786.79
2023-04-15T13:30:52.144Z,99784.10
2023-04-15T13:33:20.990Z,99785.29
2023-04-15T13:35:48.916Z,99788.20
2023-04-15T13:38:17.176Z,99790.94
2023-04-15T13:40:45.507Z,99792.73
2023-04-15T13:43:13.550Z,99792.88
2023-04-15T13:45:41.508Z,99790.73
2023-04-15T13:48:09.500Z,99792.87
2023-04-15T13:50:38.145Z,99802.52
2023-04-15T13:53:07.122Z,99795.30
2023-04-15T13:55:35.743Z,99793.26
2023-04-15T13:58:03.625Z,99798.10
2023-04-15T14:00:31.925Z,99797.55
2023-04-15T14:02:59.996Z,99796.57
2023-04-15T14:05:28.048Z,99789.91
2023-04-15T14:07:56.113Z,99788.41
2023-04-15T14:10:24.528Z,99788.13
2023-04-15T14:12:52.616Z,99791.62
2023-04-15T14:15:21.337Z,99799.05
2023-04-15T14:17:49.488Z,99803.80
2023-04-15T14:20:21.172Z,99800.35
2023-04-15T14:22:49.046Z,99811.61
2023-04-15T14:25:30.518Z,99818.55
2023-04-15T14:28:01.706Z,99819.45
2023-04-15T14:30:30.137Z,99819.08
2023-04-15T14:32:58.939Z,99827.20
2023-04-15T14:35:27.502Z,99832.76
2023-04-15T14:37:55.933Z,99831.34
2023-04-15T14:40:24.292Z,99831.78
2023-04-15T14:42:52.643Z,99831.67
2023-04-15T14:45:21.112Z,99838.17
2023-04-15T14:47:49.058Z,99843.14
2023-04-15T14:50:17.218Z,99842.42
2023-04-15T14:52:45.499Z,99844.95
2023-04-15T14:55:14.707Z,99847.66
2023-04-15T14:57:43.022Z,99853.27
2023-04-15T15:00:13.741Z,99848.59
2023-04-15T15:02:44.594Z,99848.36
2023-04-15T15:05:12.882Z,99849.59
2023-04-15T15:07:41.270Z,99856.16
2023-04-15T15:10:09.469Z,99850.45
2023-04-15T15:12:38.120Z,99838.09
2023-04-15T15:15:15.734Z,99838.78
2023-04-15T15:17:53.982Z,99837.38
2023-04-15T15:20:23.199Z,99840.01
2023-04-15T15:22:51.543Z,99840.93
2023-04-15T15:25:19.716Z,99840.23
2023-04-15T15:27:47.874Z,99839.86
2023-04-15T15:30:15.871Z,99837.36
2023-04-15T15:32:43.868Z,99828.80
2023-04-15T15:35:12.083Z,99834.67
2023-04-15T15:37:40.030Z,99835.14
2023-04-15T15:40:08.481Z,99835.73
2023-04-15T15:42:37.856Z,99839.92
2023-04-15T15:45:06.121Z,99839.05
2023-04-15T15:47:34.143Z,99840.92
2023-04-15T15:50:03.112Z,99839.73
2023-04-15T15:52:33.196Z,99837.63
2023-04-15T15:55:02.109Z,99837.56
2023-04-15T15:57:30.797Z,99841.37
2023-04-15T16:00:10.530Z,99839.75
2023-04-15T16:05:13.474Z,99840.29
2023-04-15T16:07:41.567Z,99835.94
2023-04-15T16:10:09.668Z,99828.57
2023-04-15T16:12:37.799Z,99823.62
2023-04-15T16:15:06.949Z,99821.48
2023-04-15T16:17:35.162Z,99820.71
2023-04-15T16:20:05.713Z,99824.97
2023-04-15T16:22:36.987Z,99832.81
2023-04-15T16:25:08.052Z,99846.86
2023-04-15T16:27:49.914Z,99849.00
2023-04-15T16:30:24.750Z,99851.59
2023-04-15T16:32:53.069Z,99856.04
2023-04-15T16:35:21.235Z,99854.64
2023-04-15T16:37:49.175Z,99857.27
2023-04-15T16:40:17.745Z,99855.75
2023-04-15T16:42:45.723Z,99849.21
2023-04-15T16:45:13.897Z,99842.67
2023-04-15T16:47:41.898Z,99854.86
2023-04-15T16:50:10.595Z,99857.27
2023-04-15T16:52:43.549Z,99855.41
2023-04-15T16:55:11.448Z,99861.39
2023-04-15T16:58:00.908Z,99870.35
2023-04-15T17:00:28.587Z,99882.70
2023-04-15T17:02:56.763Z,99894.36
2023-04-15T17:05:24.965Z,99900.02
2023-04-15T17:07:56.240Z,99907.66
2023-04-15T17:10:30.615Z,99909.90
2023-04-15T17:12:59.190Z,99907.73
2023-04-15T17:15:27.422Z,99911.77
2023-04-15T17:17:55.629Z,99918.05
2023-04-15T17:20:26.654Z,99932.77
2023-04-15T17:22:56.012Z,99943.35
2023-04-15T17:25:24.325Z,99950.23
2023-04-15T17:27:53.281Z,99961.80
2023-04-15T17:30:21.596Z,99976.63
2023-04-15T17:32:51.548Z,99981.94
2023-04-15T17:35:19.806Z,99984.73
2023-04-15T17:37:47.755Z,99981.02
2023-04-15T17:40:15.713Z,99981.55
2023-04-15T17:42:44.163Z,99988.27
2023-04-15T17:45:12.169Z,99997.14
2023-04-15T17:47:40.569Z,100004.55
2023-04-15T17:50:09.057Z,100003.32
2023-04-15T17:52:37.184Z,100006.87
2023-04-15T17:55:05.532Z,100000.42
2023-04-15T17:57:34.596Z,99989.88
2023-04-15T18:00:02.633Z,99991.13
2023-04-15T18:02:40.830Z,99991.11
2023-04-15T18:05:09.269Z,99991.91
2023-04-15T18:07:37.288Z,99988.02
2023-04-15T18:10:05.987Z,99983.02
2023-04-15T18:12:34.164Z,99980.36
2023-04-15T18:15:02.433Z,99974.77
2023-04-15T18:17:30.831Z,99969.34
2023-04-15T18:19:58.772Z,99971.96
2023-04-15T18:22:27.060Z,99978.99
2023-04-15T18:24:55.331Z,99976.52
2023-04-15T18:27:23.378Z,99967.59
2023-04-15T18:29:51.299Z,99966.83
2023-04-15T18:32:19.340Z,99968.34
2023-04-15T18:34:48.469Z,99961.67
2023-04-15T18:37:16.956Z,99963.50
2023-04-15T18:39:45.469Z,99961.44
2023-04-15T18:42:13.347Z,99957.14
2023-04-15T18:44:41.257Z,99952.36
2023-04-15T18:47:09.326Z,99951.77
2023-04-15T18:49:37.306Z,99954.88
2023-04-15T18:52:05.293Z,99949.24
2023-04-15T18:54:33.506Z,99947.64
2023-04-15T18:57:01.647Z,99947.16
2023-04-15T18:59:30.864Z,99952.21
2023-04-15T19:01:59.641Z,99963.16
2023-04-15T19:04:30.747Z,99971.33
2023-04-15T19:07:01.995Z,99982.23
2023-04-15T19:09:31.308Z,99983.59
2023-04-15T19:11:59.626Z,99983.58
2023-04-15T19:14:27.724Z,99985.96
2023-04-15T19:16:56.331Z,99985.54
2023-04-15T19:19:24.466Z,99982.69
2023-04-15T19:21:52.801Z,99985.40
2023-04-15T19:24:20.932Z,99987.63
2023-04-15T19:26:50.477Z,99986.71
2023-04-15T19:29:19.093Z,99984.41
2023-04-15T19:31:47.108Z,99985.22
2023-04-15T19:34:15.450Z,99987.42
2023-04-15T19:36:43.622Z,99982.38
2023-04-15T19:39:11.772Z,99978.08
2023-04-15T19:41:40.426Z,99979.16
2023-04-15T19:44:34.530Z,99982.48
2023-04-15T19:47:02.564Z,99987.27
2023-04-15T19:49:30.746Z,99990.27
2023-04-15T19:51:58.657Z,99995.81
2023-04-15T19:54:26.623Z,99996.73
2023-04-15T19:56:54.824Z,99995.13
2023-04-15T19:59:22.792Z,99996.36
2023-04-15T20:01:50.831Z,99997.48
2023-04-15T20:04:19.431Z,99997.66
2023-04-15T20:06:48.112Z,99996.27
2023-04-15T20:09:17.309Z,99995.97
2023-04-15T20:12:05.676Z,99993.23
2023-04-15T20:14:34.441Z,99991.88
2023-04-15T20:17:02.364Z,99994.25
2023-04-15T20:19:30.425Z,99991.08
2023-04-15T20:21:58.337Z,99996.71
2023-04-15T20:24:26.461Z,99992.36
2023-04-15T20:26:54.554Z,99995.86
2023-04-15T20:29:22.576Z,99997.31
2023-04-15T20:31:50.541Z,99997.68
2023-04-15T20:34:18.703Z,99998.39
2023-04-15T20:36:47.268Z,99999.35
2023-04-15T20:39:18.991Z,100002.10
2023-04-15T20:41:47.206Z,100000.76
2023-04-15T20:44:16.093Z,99995.39
2023-04-15T20:46:44.055Z,99997.54
2023-04-15T20:49:11.953Z,99998.98
2023-04-15T20:51:40.049Z,99999.04
2023-04-15T20:54:08.137Z,99994.65
2023-04-15T20:56:36.460Z,99991.95
2023-04-15T20:59:04.648Z,99995.55
2023-04-15T21:01:32.961Z,99992.66
2023-04-15T21:04:01.265Z,99992.94
2023-04-15T21:06:29.623Z,99991.83
2023-04-15T21:08:57.525Z,99989.80
2023-04-15T21:11:43.174Z,99991.68
2023-04-15T21:14:13.571Z,99995.95
2023-04-15T21:16:41.753Z,99995.19
2023-04-15T21:19:09.779Z,100000.95
2023-04-15T21:21:38.098Z,99997.67
2023-04-15T21:24:07.885Z,100002.15
2023-04-15T21:26:36.391Z,100010.38
2023-04-15T21:29:04.766Z,100008.55
2023-04-15T21:31:33.640Z,100011.36
2023-04-15T21:34:01.601Z,100014.63
2023-04-15T21:36:34.309Z,100010.55
2023-04-15T21:39:02.417Z,100010.52
2023-04-15T21:41:31.273Z,100013.15
2023-04-15T21:43:59.269Z,100016.09
2023-04-15T21:46:33.158Z,100013.29
2023-04-15T21:49:03.790Z,100016.63
2023-04-15T21:51:33.128Z,100014.54
2023-04-15T21:54:01.217Z,100015.45
2023-04-15T21:56:29.309Z,100015.56
2023-04-15T21:58:57.375Z,100020.80
2023-04-15T22:01:25.489Z,100024.35
2023-04-15T22:03:54.171Z,100027.95
2023-04-15T22:06:22.285Z,100031.44
2023-04-15T22:09:11.335Z,100030.39
2023-04-15T22:11:38.380Z,100031.35
2023-04-15T22:14:06.246Z,100034.11
2023-04-15T22:16:35.036Z,100032.89
2023-04-15T22:19:03.011Z,100035.42
2023-04-15T22:21:31.904Z,100033.27
2023-04-15T22:24:38.776Z,100031.07
2023-04-15T22:26:48.053Z,100034.77
2023-04-15T22:29:16.520Z,100032.30
2023-04-15T22:31:44.577Z,100031.13
2023-04-15T22:34:14.868Z,100031.88
2023-04-15T22:36:42.761Z,100030.73
2023-04-15T22:39:10.929Z,100031.83
2023-04-15T22:41:39.048Z,100031.34
2023-04-15T22:44:07.064Z,100032.02
2023-04-15T22:46:36.554Z,100031.48
2023-04-15T22:49:07.080Z,100030.64
2023-04-15T22:51:36.172Z,100030.73
2023-04-15T22:54:04.189Z,100034.55
2023-04-15T22:56:32.422Z,100036.77
2023-04-15T22:59:00.542Z,100037.87
2023-04-15T23:01:28.681Z,100041.63
2023-04-15T23:04:04.984Z,100044.81
2023-04-15T23:06:37.387Z,100047.21
2023-04-15T23:09:05.302Z,100047.81
2023-04-15T23:11:33.641Z,100048.33
2023-04-15T23:14:01.671Z,100049.20
2023-04-15T23:16:29.876Z,100053.86
2023-04-15T23:18:58.052Z,100050.40
2023-04-15T23:21:28.141Z,100054.92
2023-04-15T23:23:56.072Z,100055.45
2023-04-15T23:26:24.476Z,100053.43
2023-04-15T23:28:52.479Z,100056.73
2023-04-15T23:31:20.381Z,100058.39
2023-04-15T23:33:48.427Z,100055.13
2023-04-15T23:36:16.304Z,100059.59
2023-04-15T23:38:44.630Z,100056.31
2023-04-15T23:41:12.796Z,100056.11
2023-04-15T23:43:40.808Z,100058.55
2023-04-15T23:46:08.821Z,100058.50
2023-04-15T23:48:37.504Z,100058.29
2023-04-15T23:51:06.063Z,100060.45
2023-04-15T23:53:34.718Z,100060.13
2023-04-15T23:56:02.693Z,100060.13
2023-04-15T23:58:32.248Z,100062.23
